createdAt,value
2023-04-15T00:01:24.231Z,63.71
2023-04-15T00:04:38.644Z,63.72
2023-04-15T00:07:56.728Z,63.79
2023-04-15T00:11:23.061Z,63.72
2023-04-15T00:14:34.579Z,64.02
2023-04-15T00:18:01.037Z,64.19
2023-04-15T00:21:14.934Z,64.40
2023-04-15T00:24:19.558Z,64.54
2023-04-15T00:27:52.555Z,64.59
2023-04-15T00:31:07.135Z,64.86
2023-04-15T00:34:19.213Z,65.02
2023-04-15T00:37:45.944Z,65.15
2023-04-15T00:40:59.179Z,65.21
2023-04-15T00:44:15.900Z,65.19
2023-04-15T00:47:55.142Z,65.06
2023-04-15T00:51:33.757Z,65.20
2023-04-15T00:54:58.761Z,65.20
2023-04-15T00:58:38.839Z,65.24
2023-04-15T01:02:28.052Z,65.42
2023-04-15T01:06:04.579Z,65.31
2023-04-15T01:09:53.798Z,65.50
2023-04-15T01:13:24.783Z,65.63
2023-04-15T01:16:59.511Z,65.57
2023-04-15T01:20:27.895Z,65.76
2023-04-15T01:23:59.760Z,65.72
2023-04-15T01:27:26.347Z,65.91
2023-04-15T01:30:57.334Z,66.05
2023-04-15T01:34:24.083Z,66.23
2023-04-15T01:37:44.178Z,66.23
2023-04-15T01:41:01.781Z,66.22
2023-04-15T01:44:46.081Z,66.22
2023-04-15T01:48:27.346Z,66.43
2023-04-15T01:51:51.036Z,66.44
2023-04-15T01:55:20.209Z,66.30
2023-04-15T01:58:48.931Z,66.21
2023-04-15T02:02:19.798Z,66.46
2023-04-15T02:06:01.838Z,66.51
2023-04-15T02:09:38.854Z,66.49
2023-04-15T02:13:02.935Z,66.30
2023-04-15T02:16:41.180Z,66.16
2023-04-15T02:19:53.766Z,66.49
2023-04-15T02:23:12.520Z,66.38
2023-04-15T02:26:54.124Z,66.17
2023-04-15T02:30:19.363Z,65.96
2023-04-15T02:33:55.902Z,66.27
2023-04-15T02:37:27.459Z,66.42
2023-04-15T02:40:56.054Z,66.28
2023-04-15T02:44:27.601Z,66.20
2023-04-15T02:48:06.789Z,66.10
2023-04-15T02:51:50.681Z,65.85
2023-04-15T02:55:04.634Z,65.91
2023-04-15T02:58:53.703Z,65.95
2023-04-15T03:02:23.583Z,65.32
2023-04-15T03:06:18.214Z,65.81
2023-04-15T03:09:41.991Z,65.77
2023-04-15T03:13:04.224Z,65.72
2023-04-15T03:16:33.834Z,65.61
2023-04-15T03:19:59.895Z,65.42
2023-04-15T03:23:25.037Z,65.49
2023-04-15T03:26:56.123Z,65.63
2023-04-15T03:30:39.103Z,65.33
2023-04-15T03:34:11.426Z,65.38
2023-04-15T03:37:50.046Z,65.59
2023-04-15T03:41:12.695Z,65.59
2023-04-15T03:44:57.255Z,65.54
2023-04-15T03:48:28.936Z,65.57
2023-04-15T03:52:02.215Z,65.37
2023-04-15T03:55:41.965Z,65.33
2023-04-15T03:59:18.743Z,65.08
2023-04-15T04:02:57.176Z,64.88
2023-04-15T04:06:09.569Z,64.75
2023-04-15T04:09:25.969Z,64.56
2023-04-15T04:13:07.770Z,64.54
2023-04-15T04:16:47.390Z,64.54
2023-04-15T04:20:12.018Z,64.66
2023-04-15T04:23:50.741Z,64.34
2023-04-15T04:27:21.154Z,64.28
2023-04-15T04:30:54.363Z,64.10
2023-04-15T04:34:18.458Z,64.18
2023-04-15T04:37:47.748Z,64.37
2023-04-15T04:41:16.654Z,64.37
2023-04-15T04:45:05.746Z,64.77
2023-04-15T04:48:20.168Z,64.35
2023-04-15T04:52:01.045Z,64.20
2023-04-15T04:55:37.825Z,64.08
2023-04-15T04:58:43.372Z,64.13
2023-04-15T05:02:10.210Z,64.06
2023-04-15T05:05:42.331Z,63.94
2023-04-15T05:09:07.085Z,64.01
2023-04-15T05:12:40.699Z,63.65
2023-04-15T05:15:47.519Z,63.61
2023-04-15T05:18:38.038Z,63.69
2023-04-15T05:21:42.601Z,63.65
2023-04-15T05:24:36.571Z,63.63
2023-04-15T05:27:27.477Z,63.53
2023-04-15T05:30:39.275Z,63.52
2023-04-15T05:33:24.962Z,63.18
2023-04-15T05:36:20.058Z,62.96
2023-04-15T05:39:28.169Z,63.03
2023-04-15T05:42:12.524Z,63.10
2023-04-15T05:44:52.601Z,62.69
2023-04-15T05:47:38.753Z,62.09
2023-04-15T05:50:37.261Z,62.44
2023-04-15T05:53:47.712Z,62.37
2023-04-15T05:56:27.876Z,62.00
2023-04-15T05:59:33.214Z,62.08
2023-04-15T06:02:16.612Z,62.04
2023-04-15T06:05:01.373Z,62.39
2023-04-15T06:07:48.717Z,62.13
2023-04-15T06:10:39.011Z,62.44
2023-04-15T06:13:42.716Z,62.32
2023-04-15T06:16:30.876Z,62.20
2023-04-15T06:19:12.653Z,61.81
2023-04-15T06:21:49.327Z,61.93
2023-04-15T06:24:31.600Z,61.99
2023-04-15T06:27:25.077Z,61.96
2023-04-15T06:30:16.298Z,61.75
2023-04-15T06:33:05.599Z,61.39
2023-04-15T06:35:49.874Z,61.25
2023-04-15T06:38:43.887Z,60.80
2023-04-15T06:41:34.384Z,60.74
2023-04-15T06:44:20.271Z,60.63
2023-04-15T06:47:04.629Z,60.16
2023-04-15T06:49:47.540Z,58.98
2023-04-15T06:52:32.732Z,57.35
2023-04-15T06:55:34.061Z,58.92
2023-04-15T06:58:15.457Z,58.77
2023-04-15T07:01:07.658Z,62.84
2023-04-15T07:03:42.144Z,65.01
2023-04-15T07:06:44.159Z,64.25
2023-04-15T07:09:29.335Z,63.53
2023-04-15T07:12:26.906Z,62.40
2023-04-15T07:15:13.604Z,61.82
2023-04-15T07:18:09.847Z,60.84
2023-04-15T07:21:00.438Z,58.15
2023-04-15T07:23:40.607Z,56.61
2023-04-15T07:26:32.378Z,57.91
2023-04-15T07:29:11.963Z,58.96
2023-04-15T07:31:52.121Z,59.15
2023-04-15T07:35:00.437Z,62.66
2023-04-15T07:38:03.290Z,63.37
2023-04-15T07:41:15.908Z,61.52
2023-04-15T07:44:28.941Z,59.08
2023-04-15T07:47:34.323Z,55.19
2023-04-15T07:50:39.119Z,54.71
2023-04-15T07:53:33.710Z,54.75
2023-04-15T07:56:40.277Z,55.37
2023-04-15T07:59:36.921Z,55.36
2023-04-15T08:02:50.619Z,56.13
2023-04-15T08:06:05.320Z,57.03
2023-04-15T08:09:13.738Z,55.64
2023-04-15T08:12:16.107Z,55.48
2023-04-15T08:15:18.492Z,55.20
2023-04-15T08:18:15.939Z,54.78
2023-04-15T08:21:14.117Z,54.38
2023-04-15T08:24:31.653Z,54.56
2023-04-15T08:27:14.357Z,56.10
2023-04-15T08:30:22.361Z,56.01
2023-04-15T08:33:10.811Z,56.24
2023-04-15T08:36:11.145Z,55.22
2023-04-15T08:39:02.545Z,54.57
2023-04-15T08:42:23.386Z,53.48
2023-04-15T08:45:12.321Z,53.68
2023-04-15T08:48:19.101Z,53.83
2023-04-15T08:51:18.812Z,54.53
2023-04-15T08:54:20.156Z,54.83
2023-04-15T08:57:04.218Z,54.78
2023-04-15T08:59:46.820Z,54.18
2023-04-15T09:02:30.152Z,53.70
2023-04-15T09:05:21.767Z,53.02
2023-04-15T09:08:19.903Z,53.20
2023-04-15T09:11:11.560Z,53.35
2023-04-15T09:14:00.753Z,53.01
2023-04-15T09:17:03.403Z,52.09
2023-04-15T09:19:48.368Z,51.10
2023-04-15T09:22:40.501Z,51.34
2023-04-15T09:26:05.910Z,51.69
2023-04-15T09:28:48.216Z,52.39
2023-04-15T09:31:41.170Z,52.80
2023-04-15T09:34:56.656Z,53.96
2023-04-15T09:37:50.424Z,54.28
2023-04-15T09:41:07.552Z,53.78
2023-04-15T09:44:08.072Z,52.16
2023-04-15T09:47:04.916Z,52.18
2023-04-15T09:49:59.217Z,52.51
2023-04-15T09:52:53.280Z,52.76
2023-04-15T09:55:47.664Z,52.56
2023-04-15T09:59:03.173Z,52.31
2023-04-15T10:02:05.649Z,52.27
2023-04-15T10:04:48.750Z,52.19
2023-04-15T10:07:41.495Z,52.17
2023-04-15T10:10:33.323Z,52.23
2023-04-15T10:13:36.413Z,52.90
2023-04-15T10:16:30.698Z,52.62
2023-04-15T10:19:24.736Z,52.27
2023-04-15T10:22:14.358Z,52.16
2023-04-15T10:25:16.729Z,51.95
2023-04-15T10:28:11.417Z,52.17
2023-04-15T10:31:15.259Z,51.68
2023-04-15T10:34:06.775Z,51.53
2023-04-15T10:36:54.789Z,51.95
2023-04-15T10:39:44.762Z,51.88
2023-04-15T10:42:37.255Z,52.11
2023-04-15T10:45:37.740Z,51.39
2023-04-15T10:48:12.079Z,51.59
2023-04-15T10:50:57.021Z,51.77
2023-04-15T10:53:34.205Z,51.50
2023-04-15T10:56:06.068Z,50.41
2023-04-15T10:58:46.930Z,50.92
2023-04-15T11:01:18.481Z,48.26
2023-04-15T11:03:50.183Z,47.29
2023-04-15T11:06:45.739Z,47.41
2023-04-15T11:09:35.013Z,47.01
2023-04-15T11:12:12.301Z,46.97
2023-04-15T11:14:43.574Z,46.26
2023-04-15T11:17:14.685Z,46.42
2023-04-15T11:19:44.602Z,45.39
2023-04-15T11:22:16.153Z,44.95
2023-04-15T11:24:53.438Z,45.42
2023-04-15T11:27:32.873Z,45.98
2023-04-15T11:30:19.475Z,45.32
2023-04-15T11:32:49.149Z,45.33
2023-04-15T11:35:22.885Z,45.39
2023-04-15T11:37:51.977Z,45.02
2023-04-15T11:40:28.921Z,44.38
2023-04-15T11:43:18.856Z,44.88
2023-04-15T11:46:00.396Z,45.28
2023-04-15T11:48:33.004Z,44.88
2023-04-15T11:51:09.676Z,45.01
2023-04-15T11:53:41.174Z,45.08
2023-04-15T11:56:18.931Z,45.11
2023-04-15T11:58:58.579Z,46.36
2023-04-15T12:01:39.979Z,47.21
2023-04-15T12:04:25.172Z,47.16
2023-04-15T12:07:07.628Z,46.82
2023-04-15T12:09:40.246Z,47.37
2023-04-15T12:12:14.410Z,47.21
2023-04-15T12:14:55.280Z,47.75
2023-04-15T12:17:31.901Z,47.73
2023-04-15T12:20:26.889Z,48.01
2023-04-15T12:23:10.688Z,47.50
2023-04-15T12:25:52.899Z,47.45
2023-04-15T12:28:31.198Z,48.42
2023-04-15T12:31:10.292Z,47.75
2023-04-15T12:33:44.736Z,47.54
2023-04-15T12:36:19.171Z,47.44
2023-04-15T12:39:00.757Z,48.14
2023-04-15T12:41:38.452Z,48.06
2023-04-15T12:44:09.697Z,48.43
2023-04-15T12:46:43.662Z,48.53
2023-04-15T12:49:21.096Z,46.32
2023-04-15T12:51:55.979Z,46.17
2023-04-15T12:54:30.696Z,46.72
2023-04-15T12:57:14.078Z,46.99
2023-04-15T12:59:48.398Z,47.28
2023-04-15T13:02:30.810Z,47.84
2023-04-15T13:05:24.782Z,47.71
2023-04-15T13:08:13.225Z,47.42
2023-04-15T13:10:49.382Z,47.50
2023-04-15T13:13:28.409Z,47.79
2023-04-15T13:16:04.826Z,47.96
2023-04-15T13:18:42.466Z,47.96
2023-04-15T13:21:16.073Z,48.02
2023-04-15T13:23:53.461Z,48.08
2023-04-15T13:26:33.209Z,47.95
2023-04-15T13:29:12.537Z,47.87
2023-04-15T13:31:50.704Z,48.04
2023-04-15T13:34:27.721Z,48.31
2023-04-15T13:37:11.252Z,48.47
2023-04-15T13:39:55.125Z,48.28
2023-04-15T13:42:33.912Z,48.26
2023-04-15T13:45:10.789Z,47.93
2023-04-15T13:47:42.565Z,48.30
2023-04-15T13:50:17.352Z,48.72
2023-04-15T13:53:05.924Z,48.04
2023-04-15T13:55:42.806Z,48.24
2023-04-15T13:58:30.429Z,48.19
2023-04-15T14:01:05.749Z,48.08
2023-04-15T14:03:40.584Z,48.24
2023-04-15T14:06:22.711Z,48.53
2023-04-15T14:08:59.366Z,48.08
2023-04-15T14:11:42.185Z,48.12
2023-04-15T14:14:27.862Z,47.82
2023-04-15T14:17:14.468Z,47.79
2023-04-15T14:19:53.498Z,47.38
2023-04-15T14:22:32.210Z,47.36
2023-04-15T14:25:06.672Z,48.02
2023-04-15T14:27:44.017Z,47.79
2023-04-15T14:30:15.792Z,47.98
2023-04-15T14:32:56.069Z,48.09
2023-04-15T14:35:27.589Z,47.09
2023-04-15T14:38:06.402Z,47.22
2023-04-15T14:40:37.439Z,46.53
2023-04-15T14:43:11.256Z,45.78
2023-04-15T14:45:44.571Z,45.40
2023-04-15T14:48:22.335Z,45.93
2023-04-15T14:50:51.126Z,44.90
2023-04-15T14:53:25.443Z,45.70
2023-04-15T14:56:02.727Z,44.86
2023-04-15T14:58:33.989Z,44.47
2023-04-15T15:01:04.308Z,43.95
2023-04-15T15:03:33.075Z,44.72
2023-04-15T15:06:04.843Z,44.01
2023-04-15T15:08:38.641Z,43.60
2023-04-15T15:11:09.684Z,42.59
2023-04-15T15:13:38.680Z,42.91
2023-04-15T15:16:10.635Z,42.42
2023-04-15T15:18:40.251Z,42.54
2023-04-15T15:21:08.721Z,43.03
2023-04-15T15:23:37.106Z,42.95
2023-04-15T15:26:05.783Z,43.13
2023-04-15T15:28:35.247Z,43.45
2023-04-15T15:31:04.839Z,43.20
2023-04-15T15:33:33.581Z,43.60
2023-04-15T15:36:02.415Z,43.47
2023-04-15T15:38:30.750Z,43.75
2023-04-15T15:41:02.300Z,42.96
2023-04-15T15:43:30.563Z,42.95
2023-04-15T15:45:59.047Z,43.24
2023-04-15T15:48:27.420Z,43.08
2023-04-15T15:50:55.892Z,43.19
2023-04-15T15:53:26.014Z,44.00
2023-04-15T15:55:54.296Z,44.78
2023-04-15T15:58:22.876Z,44.66
2023-04-15T16:00:51.324Z,44.10
2023-04-15T16:03:20.183Z,43.95
2023-04-15T16:05:49.238Z,43.97
2023-04-15T16:08:18.020Z,44.29
2023-04-15T16:10:46.601Z,44.67
2023-04-15T16:13:15.658Z,44.36
2023-04-15T16:15:50.058Z,44.57
2023-04-15T16:18:18.604Z,44.48
2023-04-15T16:20:54.445Z,44.37
2023-04-15T16:23:23.948Z,44.86
2023-04-15T16:25:54.784Z,44.71
2023-04-15T16:28:26.758Z,45.22
2023-04-15T16:31:01.098Z,44.98
2023-04-15T16:33:32.207Z,44.92
2023-04-15T16:36:04.491Z,45.33
2023-04-15T16:38:35.807Z,46.05
2023-04-15T16:41:04.614Z,45.98
2023-04-15T16:43:35.950Z,46.11
2023-04-15T16:46:08.017Z,46.04
2023-04-15T16:48:39.873Z,46.03
2023-04-15T16:51:11.017Z,46.01
2023-04-15T16:53:48.667Z,47.00
2023-04-15T16:56:17.373Z,47.88
2023-04-15T16:58:48.333Z,50.73
2023-04-15T17:01:20.352Z,52.69
2023-04-15T17:03:53.443Z,54.92
2023-04-15T17:06:26.879Z,56.12
2023-04-15T17:08:55.969Z,57.24
2023-04-15T17:11:33.050Z,59.12
2023-04-15T17:14:06.342Z,59.50
2023-04-15T17:16:47.724Z,60.53
2023-04-15T17:19:27.057Z,64.10
2023-04-15T17:22:02.401Z,66.13
2023-04-15T17:24:42.348Z,65.32
2023-04-15T17:27:14.158Z,64.39
2023-04-15T17:29:51.287Z,63.25
2023-04-15T17:32:40.229Z,60.42
2023-04-15T17:35:51.835Z,57.65
2023-04-15T17:38:51.796Z,57.57
2023-04-15T17:41:32.011Z,57.35
2023-04-15T17:44:25.193Z,59.41
2023-04-15T17:47:19.656Z,63.08
2023-04-15T17:50:27.455Z,65.50
2023-04-15T17:53:19.177Z,65.02
2023-04-15T17:56:20.945Z,64.03
2023-04-15T17:59:15.447Z,62.84
2023-04-15T18:02:21.142Z,59.59
2023-04-15T18:05:16.340Z,57.15
2023-04-15T18:08:16.608Z,57.77
2023-04-15T18:11:13.045Z,58.45
2023-04-15T18:14:02.754Z,59.47
2023-04-15T18:16:40.901Z,63.74
2023-04-15T18:19:53.752Z,66.24
2023-04-15T18:22:31.638Z,66.21
2023-04-15T18:25:46.207Z,65.00
2023-04-15T18:28:27.421Z,64.11
2023-04-15T18:31:30.072Z,63.31
2023-04-15T18:34:23.222Z,62.54
2023-04-15T18:37:22.223Z,59.56
2023-04-15T18:40:16.219Z,57.15
2023-04-15T18:43:25.019Z,57.61
2023-04-15T18:46:37.001Z,57.85
2023-04-15T18:49:45.740Z,62.23
2023-04-15T18:52:44.552Z,65.76
2023-04-15T18:55:35.951Z,65.24
2023-04-15T18:59:08.864Z,64.29
2023-04-15T19:02:20.830Z,63.68
2023-04-15T19:05:36.624Z,62.73
2023-04-15T19:08:26.712Z,62.09
2023-04-15T19:11:42.130Z,61.50
2023-04-15T19:14:41.084Z,58.62
2023-04-15T19:17:39.789Z,56.60
2023-04-15T19:20:58.730Z,57.23
2023-04-15T19:23:57.419Z,58.29
2023-04-15T19:26:53.342Z,62.36
2023-04-15T19:29:52.545Z,65.28
2023-04-15T19:33:08.021Z,65.27
2023-04-15T19:36:31.910Z,65.32
2023-04-15T19:39:29.775Z,64.70
2023-04-15T19:42:35.317Z,64.00
2023-04-15T19:45:56.957Z,63.41
2023-04-15T19:49:02.201Z,62.80
2023-04-15T19:51:45.317Z,61.96
2023-04-15T19:54:40.922Z,61.23
2023-04-15T19:57:44.214Z,58.40
2023-04-15T20:00:43.522Z,56.15
2023-04-15T20:04:04.627Z,56.70
2023-04-15T20:07:07.827Z,57.47
2023-04-15T20:10:16.556Z,62.03
2023-04-15T20:13:27.932Z,65.58
2023-04-15T20:16:38.601Z,65.68
2023-04-15T20:19:41.812Z,65.07
2023-04-15T20:22:47.552Z,64.57
2023-04-15T20:25:59.653Z,63.86
2023-04-15T20:29:17.557Z,63.27
2023-04-15T20:32:28.560Z,62.86
2023-04-15T20:35:28.474Z,62.19
2023-04-15T20:38:50.506Z,61.61
2023-04-15T20:42:10.406Z,61.19
2023-04-15T20:45:14.712Z,57.61
2023-04-15T20:48:24.664Z,55.60
2023-04-15T20:51:45.848Z,56.25
2023-04-15T20:55:09.250Z,57.26
2023-04-15T20:58:21.997Z,62.24
2023-04-15T21:01:25.091Z,65.34
2023-04-15T21:04:39.410Z,65.57
2023-04-15T21:07:54.156Z,65.81
2023-04-15T21:10:54.197Z,64.44
2023-04-15T21:14:27.673Z,63.71
2023-04-15T21:17:45.770Z,63.22
2023-04-15T21:21:09.127Z,62.36
2023-04-15T21:24:26.835Z,61.84
2023-04-15T21:27:54.857Z,61.40
2023-04-15T21:31:07.627Z,60.97
2023-04-15T21:34:56.809Z,57.56
2023-04-15T21:38:23.235Z,55.67
2023-04-15T21:41:54.251Z,56.31
2023-04-15T21:45:34.674Z,61.84
2023-04-15T21:49:12.521Z,65.29
2023-04-15T21:53:00.391Z,65.16
2023-04-15T21:56:49.473Z,64.58
2023-04-15T22:00:38.716Z,63.93
2023-04-15T22:04:31.993Z,63.12
2023-04-15T22:08:19.537Z,62.47
2023-04-15T22:12:08.393Z,61.99
2023-04-15T22:15:50.073Z,61.72
2023-04-15T22:19:38.112Z,61.41
2023-04-15T22:23:20.149Z,61.30
2023-04-15T22:26:59.274Z,61.19
2023-04-15T22:30:35.236Z,60.69
2023-04-15T22:34:04.171Z,56.55
2023-04-15T22:37:38.069Z,55.55
2023-04-15T22:41:03.970Z,56.12
2023-04-15T22:44:42.787Z,61.34
2023-04-15T22:48:21.824Z,65.14
2023-04-15T22:51:59.795Z,65.33
2023-04-15T22:55:49.217Z,64.77
2023-04-15T22:59:32.333Z,64.39
2023-04-15T23:03:12.633Z,63.43
2023-04-15T23:07:00.332Z,62.76
2023-04-15T23:10:48.375Z,62.38
2023-04-15T23:14:30.381Z,62.18
2023-04-15T23:18:19.485Z,62.11
2023-04-15T23:21:49.203Z,61.76
2023-04-15T23:25:18.575Z,61.21
2023-04-15T23:29:07.901Z,60.96
2023-04-15T23:32:57.465Z,56.37
2023-04-15T23:36:46.797Z,55.03
2023-04-15T23:40:35.966Z,56.10
2023-04-15T23:44:19.259Z,62.21
2023-04-15T23:47:59.937Z,65.25
2023-04-15T23:51:49.242Z,64.81
2023-04-15T23:55:38.395Z,64.54
2023-04-15T23:59:26.558Z,63.81
